Kaisa — 9HRF9 — position and weather

sailwx.info

Track history (hours):
 
Tides and Currents Weather Stations Pressure Air Temp Water Temp Dewpoint Dewpoint Depression Visibility Wind Speed Wind Dir Waves Ship Positions

Kaisa

Last reported at 2018-Jan-24 07:00 UTC. Time now 2018-Jan-24 07:26 UTC.
Position N 53°54' E 011°28'.

Length 90 m; draft 3.6 m.

Type: Cargo ship. MMSI: 249399000.

Date/timePositionNaut miles runAvg speedWind from/ knotsBaromVisibWave heightAir tempDewpointWater temp
2018-Jan-24 07:00N 53°54' E 011°28'0 0.0
2018-Jan-24 06:26N 53°54' E 011°28'0 0.0
2018-Jan-24 06:00N 53°54' E 011°28'0 0.0
2018-Jan-24 05:30N 53°54' E 011°28'0 0.0
2018-Jan-24 04:59N 53°54' E 011°28'0 0.0
2018-Jan-24 04:29N 53°54' E 011°28'0 0.0
2018-Jan-24 03:59N 53°54' E 011°28'0 0.0
2018-Jan-24 03:29N 53°54' E 011°28'0 0.0
2018-Jan-24 02:59N 53°54' E 011°28'0 0.0
2018-Jan-24 02:29N 53°54' E 011°28'17 6.2
2018-Jan-23 23:46N 54°11' E 011°29'310.4
2018-Jan-23 23:30N 54°13' E 011°31'5 9.8
2018-Jan-23 23:00N 54°17' E 011°36'510.1
2018-Jan-23 22:30N 54°20' E 011°44'510.1
2018-Jan-23 22:00N 54°22' E 011°52'62 1.2
2018-Jan-21 19:38N 55°11' E 012°59'310.2
2018-Jan-21 19:22N 55°12' E 012°56'410.0
2018-Jan-21 18:59N 55°15' E 012°51'510.1
2018-Jan-21 18:30N 55°17' E 012°43'4 8.7
2018-Jan-21 18:00N 55°20' E 012°38'510.4
2018-Jan-21 17:30N 55°25' E 012°40'510.2
2018-Jan-21 17:01N 55°30' E 012°41'5 9.7
2018-Jan-21 16:31N 55°35' E 012°42'5 9.4
2018-Jan-21 16:00N 55°40' E 012°41'5 9.7
2018-Jan-21 15:30N 55°45' E 012°41'510.2
2018-Jan-21 15:01N 55°50' E 012°40'5 9.7
2018-Jan-21 14:31N 55°55' E 012°39'5 9.7
2018-Jan-21 14:01N 55°59' E 012°38'75 9.9
2018-Jan-21 06:27N 57°07' E 011°37'510.4
2018-Jan-21 05:58N 57°11' E 011°34'510.5
2018-Jan-21 05:31N 57°16' E 011°31'510.5
2018-Jan-21 05:01N 57°21' E 011°28'510.4
2018-Jan-21 04:31N 57°26' E 011°24'5 9.6
2018-Jan-21 04:00N 57°29' E 011°19'5 9.8
2018-Jan-21 03:31N 57°33' E 011°12'5 9.5
2018-Jan-21 03:01N 57°36' E 011°06'5 9.2
2018-Jan-21 02:31N 57°39' E 010°60'5 9.8
2018-Jan-21 02:00N 57°43' E 010°53'510.3
2018-Jan-21 01:30N 57°46' E 010°46'510.5
2018-Jan-21 01:01N 57°47' E 010°36'611.6
2018-Jan-21 00:30N 57°47' E 010°25'611.3
2018-Jan-20 23:59N 57°47' E 010°14'511.1
2018-Jan-20 23:29N 57°47' E 010°04'510.7
2018-Jan-20 23:00N 57°47' E 009°54'4910.2
2018-Jan-20 18:08N 57°51' E 008°21'1 9.4
2018-Jan-20 18:00N 57°51' E 008°19'4 8.6
2018-Jan-20 17:30N 57°51' E 008°11'4 7.3
2018-Jan-20 17:00N 57°51' E 008°04'3 6.9
2018-Jan-20 16:30N 57°52' E 007°58'4 7.1
2018-Jan-20 16:00N 57°52' E 007°51'4 7.0
2018-Jan-20 15:29N 57°52' E 007°44'4 7.2
2018-Jan-20 15:00N 57°52' E 007°38'4 7.8
2018-Jan-20 14:30N 57°53' E 007°30'4 8.0
2018-Jan-20 14:00N 57°53' E 007°23'4 8.0
2018-Jan-20 13:30N 57°53' E 007°15'4 8.1
2018-Jan-20 13:00N 57°53' E 007°08'4 8.3
2018-Jan-20 12:31N 57°55' E 007°00'4 8.7
2018-Jan-20 12:01N 57°56' E 006°53'4 8.4
2018-Jan-20 11:31N 57°58' E 006°45'4 7.9
2018-Jan-20 11:01N 57°59' E 006°38'4 7.7
2018-Jan-20 10:30N 58°01' E 006°32'4 7.5
2018-Jan-20 10:01N 58°03' E 006°27'4 7.1
2018-Jan-20 09:30N 58°06' E 006°21'4 7.6
2018-Jan-20 08:59N 58°09' E 006°16'4 7.8
2018-Jan-20 08:30N 58°11' E 006°10'4 7.7
2018-Jan-20 07:59N 58°14' E 006°05'4 8.1
2018-Jan-20 07:30N 58°16' E 005°59'4 8.0
2018-Jan-20 07:00N 58°19' E 005°53'4 8.4
2018-Jan-20 06:30N 58°22' E 005°48'5 9.2
2018-Jan-20 06:00N 58°26' E 005°43'5 9.0
2018-Jan-20 05:30N 58°29' E 005°37'4 8.2
2018-Jan-20 05:00N 58°33' E 005°33'4 8.2
2018-Jan-20 04:30N 58°36' E 005°30'4 8.2
2018-Jan-20 04:00N 58°40' E 005°27'4 7.8
2018-Jan-20 03:30N 58°44' E 005°24'4 7.7
2018-Jan-20 03:00N 58°48' E 005°23'4 7.8
2018-Jan-20 02:31N 58°51' E 005°21'4 8.4
2018-Jan-20 02:00N 58°55' E 005°19'4 8.6
2018-Jan-20 01:30N 58°60' E 005°19'5 9.5
2018-Jan-20 01:00N 59°04' E 005°20'5 9.7
2018-Jan-20 00:30N 59°07' E 005°27'5 9.6
2018-Jan-20 00:00N 59°11' E 005°33'510.7
2018-Jan-19 23:30N 59°15' E 005°41'510.6
2018-Jan-19 23:01N 59°18' E 005°48'510.4
2018-Jan-19 22:30N 59°21' E 005°58'3 6.2
2018-Jan-19 21:58N 59°23' E 006°03'0 0.0
2018-Jan-19 21:28N 59°23' E 006°03'0 0.0
2018-Jan-19 20:58N 59°23' E 006°03'0 0.0
2018-Jan-19 20:28N 59°23' E 006°03'0 0.0
2018-Jan-19 19:58N 59°23' E 006°03'0 0.0
2018-Jan-19 19:28N 59°23' E 006°03'0 0.0
2018-Jan-19 18:58N 59°23' E 006°03'0 0.0
2018-Jan-19 18:28N 59°23' E 006°03'0 0.0
2018-Jan-19 17:58N 59°23' E 006°03'0 0.0
2018-Jan-19 17:28N 59°23' E 006°03'0 0.0
2018-Jan-19 16:58N 59°23' E 006°03'0 0.0
2018-Jan-19 16:28N 59°23' E 006°03'0 0.0
2018-Jan-19 15:58N 59°23' E 006°03'0 0.0
2018-Jan-19 15:28N 59°23' E 006°03'0 0.0
2018-Jan-19 14:58N 59°23' E 006°03'0 0.0
2018-Jan-19 14:28N 59°23' E 006°03'0 0.0
2018-Jan-19 13:58N 59°23' E 006°03'0 0.0
2018-Jan-19 13:28N 59°23' E 006°03'0 0.0
2018-Jan-19 13:00N 59°23' E 006°03'0 0.0
2018-Jan-19 12:28N 59°23' E 006°03'0 0.0
2018-Jan-19 11:58N 59°23' E 006°03'0 0.0
2018-Jan-19 11:28N 59°23' E 006°03'0 0.0
2018-Jan-19 10:58N 59°23' E 006°03'0 0.0
2018-Jan-19 10:28N 59°23' E 006°03'0 0.2
2018-Jan-19 10:00N 59°23' E 006°03'3 6.4
2018-Jan-19 09:30N 59°21' E 005°58'511.0
2018-Jan-19 09:00N 59°18' E 005°48'510.9
2018-Jan-19 08:30N 59°14' E 005°40'611.0
2018-Jan-19 08:00N 59°10' E 005°34'510.0
2018-Jan-19 07:30N 59°07' E 005°27'1 2.3
2018-Jan-19 07:00N 59°06' E 005°25'4 7.6
2018-Jan-19 06:30N 59°04' E 005°19'3 6.0
2018-Jan-19 05:59N 59°03' E 005°14'3 7.1
2018-Jan-19 05:30N 59°00' E 005°09'4 7.3
2018-Jan-19 05:00N 58°57' E 005°05'4 7.1
2018-Jan-19 04:30N 58°54' E 005°01'5 9.5
2018-Jan-19 03:59N 58°50' E 004°56'29411.6
2018-Jan-18 02:31N 54°46' W 000°06'011.4
2018-Jan-18 02:30N 54°46' W 000°06'511.3
2018-Jan-18 02:00N 54°42' W 000°11'611.2
2018-Jan-18 01:30N 54°36' W 000°11'612.0
2018-Jan-18 01:00N 54°30' W 000°09'1312.5
2018-Jan-18 00:00N 54°18' W 000°02'112.9
2018-Jan-17 23:57N 54°18' W 000°01'  
Track history (hours):
 
Tides and Currents Weather Stations Pressure Air Temp Water Temp Dewpoint Dewpoint Depression Visibility Wind Speed Wind Dir Waves Ship Positions

Kaisa

Last reported at 2018-Jan-24 07:00 UTC. Time now 2018-Jan-24 07:26 UTC.
Position N 53°54' E 011°28'.

Length 90 m; draft 3.6 m.

Type: Cargo ship. MMSI: 249399000.

Date/timePositionNaut miles runAvg speedWind from/ knotsBaromVisibWave heightAir tempDewpointWater temp
2018-Jan-24 07:00N 53°54' E 011°28'0 0.0
2018-Jan-24 06:26N 53°54' E 011°28'0 0.0
2018-Jan-24 06:00N 53°54' E 011°28'0 0.0
2018-Jan-24 05:30N 53°54' E 011°28'0 0.0
2018-Jan-24 04:59N 53°54' E 011°28'0 0.0
2018-Jan-24 04:29N 53°54' E 011°28'0 0.0
2018-Jan-24 03:59N 53°54' E 011°28'0 0.0
2018-Jan-24 03:29N 53°54' E 011°28'0 0.0
2018-Jan-24 02:59N 53°54' E 011°28'0 0.0
2018-Jan-24 02:29N 53°54' E 011°28'17 6.2
2018-Jan-23 23:46N 54°11' E 011°29'310.4
2018-Jan-23 23:30N 54°13' E 011°31'5 9.8
2018-Jan-23 23:00N 54°17' E 011°36'510.1
2018-Jan-23 22:30N 54°20' E 011°44'510.1
2018-Jan-23 22:00N 54°22' E 011°52'62 1.2
2018-Jan-21 19:38N 55°11' E 012°59'310.2
2018-Jan-21 19:22N 55°12' E 012°56'410.0
2018-Jan-21 18:59N 55°15' E 012°51'510.1
2018-Jan-21 18:30N 55°17' E 012°43'4 8.7
2018-Jan-21 18:00N 55°20' E 012°38'510.4
2018-Jan-21 17:30N 55°25' E 012°40'510.2
2018-Jan-21 17:01N 55°30' E 012°41'5 9.7
2018-Jan-21 16:31N 55°35' E 012°42'5 9.4
2018-Jan-21 16:00N 55°40' E 012°41'5 9.7
2018-Jan-21 15:30N 55°45' E 012°41'510.2
2018-Jan-21 15:01N 55°50' E 012°40'5 9.7
2018-Jan-21 14:31N 55°55' E 012°39'5 9.7
2018-Jan-21 14:01N 55°59' E 012°38'75 9.9
2018-Jan-21 06:27N 57°07' E 011°37'510.4
2018-Jan-21 05:58N 57°11' E 011°34'510.5
2018-Jan-21 05:31N 57°16' E 011°31'510.5
2018-Jan-21 05:01N 57°21' E 011°28'510.4
2018-Jan-21 04:31N 57°26' E 011°24'5 9.6
2018-Jan-21 04:00N 57°29' E 011°19'5 9.8
2018-Jan-21 03:31N 57°33' E 011°12'5 9.5
2018-Jan-21 03:01N 57°36' E 011°06'5 9.2
2018-Jan-21 02:31N 57°39' E 010°60'5 9.8
2018-Jan-21 02:00N 57°43' E 010°53'510.3
2018-Jan-21 01:30N 57°46' E 010°46'510.5
2018-Jan-21 01:01N 57°47' E 010°36'611.6
2018-Jan-21 00:30N 57°47' E 010°25'611.3
2018-Jan-20 23:59N 57°47' E 010°14'511.1
2018-Jan-20 23:29N 57°47' E 010°04'510.7
2018-Jan-20 23:00N 57°47' E 009°54'4910.2
2018-Jan-20 18:08N 57°51' E 008°21'1 9.4
2018-Jan-20 18:00N 57°51' E 008°19'4 8.6
2018-Jan-20 17:30N 57°51' E 008°11'4 7.3
2018-Jan-20 17:00N 57°51' E 008°04'3 6.9
2018-Jan-20 16:30N 57°52' E 007°58'4 7.1
2018-Jan-20 16:00N 57°52' E 007°51'4 7.0
2018-Jan-20 15:29N 57°52' E 007°44'4 7.2
2018-Jan-20 15:00N 57°52' E 007°38'4 7.8
2018-Jan-20 14:30N 57°53' E 007°30'4 8.0
2018-Jan-20 14:00N 57°53' E 007°23'4 8.0
2018-Jan-20 13:30N 57°53' E 007°15'4 8.1
2018-Jan-20 13:00N 57°53' E 007°08'4 8.3
2018-Jan-20 12:31N 57°55' E 007°00'4 8.7
2018-Jan-20 12:01N 57°56' E 006°53'4 8.4
2018-Jan-20 11:31N 57°58' E 006°45'4 7.9
2018-Jan-20 11:01N 57°59' E 006°38'4 7.7
2018-Jan-20 10:30N 58°01' E 006°32'4 7.5
2018-Jan-20 10:01N 58°03' E 006°27'4 7.1
2018-Jan-20 09:30N 58°06' E 006°21'4 7.6
2018-Jan-20 08:59N 58°09' E 006°16'4 7.8
2018-Jan-20 08:30N 58°11' E 006°10'4 7.7
2018-Jan-20 07:59N 58°14' E 006°05'4 8.1
2018-Jan-20 07:30N 58°16' E 005°59'4 8.0
2018-Jan-20 07:00N 58°19' E 005°53'4 8.4
2018-Jan-20 06:30N 58°22' E 005°48'5 9.2
2018-Jan-20 06:00N 58°26' E 005°43'5 9.0
2018-Jan-20 05:30N 58°29' E 005°37'4 8.2
2018-Jan-20 05:00N 58°33' E 005°33'4 8.2
2018-Jan-20 04:30N 58°36' E 005°30'4 8.2
2018-Jan-20 04:00N 58°40' E 005°27'4 7.8
2018-Jan-20 03:30N 58°44' E 005°24'4 7.7
2018-Jan-20 03:00N 58°48' E 005°23'4 7.8
2018-Jan-20 02:31N 58°51' E 005°21'4 8.4
2018-Jan-20 02:00N 58°55' E 005°19'4 8.6
2018-Jan-20 01:30N 58°60' E 005°19'5 9.5
2018-Jan-20 01:00N 59°04' E 005°20'5 9.7
2018-Jan-20 00:30N 59°07' E 005°27'5 9.6
2018-Jan-20 00:00N 59°11' E 005°33'510.7
2018-Jan-19 23:30N 59°15' E 005°41'510.6
2018-Jan-19 23:01N 59°18' E 005°48'510.4
2018-Jan-19 22:30N 59°21' E 005°58'3 6.2
2018-Jan-19 21:58N 59°23' E 006°03'0 0.0
2018-Jan-19 21:28N 59°23' E 006°03'0 0.0
2018-Jan-19 20:58N 59°23' E 006°03'0 0.0
2018-Jan-19 20:28N 59°23' E 006°03'0 0.0
2018-Jan-19 19:58N 59°23' E 006°03'0 0.0
2018-Jan-19 19:28N 59°23' E 006°03'0 0.0
2018-Jan-19 18:58N 59°23' E 006°03'0 0.0
2018-Jan-19 18:28N 59°23' E 006°03'0 0.0
2018-Jan-19 17:58N 59°23' E 006°03'0 0.0
2018-Jan-19 17:28N 59°23' E 006°03'0 0.0
2018-Jan-19 16:58N 59°23' E 006°03'0 0.0
2018-Jan-19 16:28N 59°23' E 006°03'0 0.0
2018-Jan-19 15:58N 59°23' E 006°03'0 0.0
2018-Jan-19 15:28N 59°23' E 006°03'0 0.0
2018-Jan-19 14:58N 59°23' E 006°03'0 0.0
2018-Jan-19 14:28N 59°23' E 006°03'0 0.0
2018-Jan-19 13:58N 59°23' E 006°03'0 0.0
2018-Jan-19 13:28N 59°23' E 006°03'0 0.0
2018-Jan-19 13:00N 59°23' E 006°03'0 0.0
2018-Jan-19 12:28N 59°23' E 006°03'0 0.0
2018-Jan-19 11:58N 59°23' E 006°03'0 0.0
2018-Jan-19 11:28N 59°23' E 006°03'0 0.0
2018-Jan-19 10:58N 59°23' E 006°03'0 0.0
2018-Jan-19 10:28N 59°23' E 006°03'0 0.2
2018-Jan-19 10:00N 59°23' E 006°03'3 6.4
2018-Jan-19 09:30N 59°21' E 005°58'511.0
2018-Jan-19 09:00N 59°18' E 005°48'510.9
2018-Jan-19 08:30N 59°14' E 005°40'611.0
2018-Jan-19 08:00N 59°10' E 005°34'510.0
2018-Jan-19 07:30N 59°07' E 005°27'1 2.3
2018-Jan-19 07:00N 59°06' E 005°25'4 7.6
2018-Jan-19 06:30N 59°04' E 005°19'3 6.0
2018-Jan-19 05:59N 59°03' E 005°14'3 7.1
2018-Jan-19 05:30N 59°00' E 005°09'4 7.3
2018-Jan-19 05:00N 58°57' E 005°05'4 7.1
2018-Jan-19 04:30N 58°54' E 005°01'5 9.5
2018-Jan-19 03:59N 58°50' E 004°56'29411.6
2018-Jan-18 02:31N 54°46' W 000°06'011.4
2018-Jan-18 02:30N 54°46' W 000°06'511.3
2018-Jan-18 02:00N 54°42' W 000°11'611.2
2018-Jan-18 01:30N 54°36' W 000°11'612.0
2018-Jan-18 01:00N 54°30' W 000°09'1312.5
2018-Jan-18 00:00N 54°18' W 000°02'112.9
2018-Jan-17 23:57N 54°18' W 000°01'  

Dump ship's entire track history